sensor_id;sensor_type;location;lat;lon;timestamp;temperature;humidity
54518;DHT22;40423;53.176;6.002;2023-05-10T00:00:27;13.20;99.90
54518;DHT22;40423;53.176;6.002;2023-05-10T00:02:52;13.20;99.90
54518;DHT22;40423;53.176;6.002;2023-05-10T00:05:18;13.20;99.90
54518;DHT22;40423;53.176;6.002;2023-05-10T00:07:44;13.20;99.90
54518;DHT22;40423;53.176;6.002;2023-05-10T00:10:11;13.20;99.90
54518;DHT22;40423;53.176;6.002;2023-05-10T00:12:37;13.20;99.90
54518;DHT22;40423;53.176;6.002;2023-05-10T00:15:03;13.10;99.90
54518;DHT22;40423;53.176;6.002;2023-05-10T00:17:29;13.10;99.90
54518;DHT22;40423;53.176;6.002;2023-05-10T00:19:55;13.10;99.90
54518;DHT22;40423;53.176;6.002;2023-05-10T00:22:21;13.10;99.90
54518;DHT22;40423;53.176;6.002;2023-05-10T00:24:53;13.10;99.90
54518;DHT22;40423;53.176;6.002;2023-05-10T00:27:19;13.10;99.90
54518;DHT22;40423;53.176;6.002;2023-05-10T00:29:48;13.10;99.90
54518;DHT22;40423;53.176;6.002;2023-05-10T00:32:14;13.00;99.90
54518;DHT22;40423;53.176;6.002;2023-05-10T00:34:39;13.00;99.90
54518;DHT22;40423;53.176;6.002;2023-05-10T00:37:08;13.00;99.90
54518;DHT22;40423;53.176;6.002;2023-05-10T00:39:34;13.00;99.90
54518;DHT22;40423;53.176;6.002;2023-05-10T00:41:59;13.00;99.90
54518;DHT22;40423;53.176;6.002;2023-05-10T00:44:25;13.00;99.90
54518;DHT22;40423;53.176;6.002;2023-05-10T00:46:52;12.90;99.90
54518;DHT22;40423;53.176;6.002;2023-05-10T00:49:18;12.90;99.90
54518;DHT22;40423;53.176;6.002;2023-05-10T00:51:45;12.90;99.90
54518;DHT22;40423;53.176;6.002;2023-05-10T00:54:12;12.90;99.90
54518;DHT22;40423;53.176;6.002;2023-05-10T00:56:39;12.80;99.90
54518;DHT22;40423;53.176;6.002;2023-05-10T00:59:06;12.80;99.90
54518;DHT22;40423;53.176;6.002;2023-05-10T01:01:33;12.90;99.90
54518;DHT22;40423;53.176;6.002;2023-05-10T01:03:59;12.70;99.90
54518;DHT22;40423;53.176;6.002;2023-05-10T01:06:25;12.80;99.90
54518;DHT22;40423;53.176;6.002;2023-05-10T01:08:51;12.80;99.90
54518;DHT22;40423;53.176;6.002;2023-05-10T01:11:17;12.80;99.90
54518;DHT22;40423;53.176;6.002;2023-05-10T01:13:46;12.70;99.90
54518;DHT22;40423;53.176;6.002;2023-05-10T01:16:13;12.70;99.90
54518;DHT22;40423;53.176;6.002;2023-05-10T01:18:40;12.70;99.90
54518;DHT22;40423;53.176;6.002;2023-05-10T01:21:38;12.70;99.90
54518;DHT22;40423;53.176;6.002;2023-05-10T01:26:54;12.60;99.90
54518;DHT22;40423;53.176;6.002;2023-05-10T01:34:45;12.70;99.90
54518;DHT22;40423;53.176;6.002;2023-05-10T01:37:21;12.70;99.90
54518;DHT22;40423;53.176;6.002;2023-05-10T01:39:58;12.70;99.90
54518;DHT22;40423;53.176;6.002;2023-05-10T01:42:36;12.70;99.90
54518;DHT22;40423;53.176;6.002;2023-05-10T01:45:07;12.60;99.90
54518;DHT22;40423;53.176;6.002;2023-05-10T01:47:44;12.60;99.90
54518;DHT22;40423;53.176;6.002;2023-05-10T01:50:17;12.60;99.90
54518;DHT22;40423;53.176;6.002;2023-05-10T01:52:47;12.60;99.90
54518;DHT22;40423;53.176;6.002;2023-05-10T01:55:16;12.60;99.90
54518;DHT22;40423;53.176;6.002;2023-05-10T01:57:44;12.50;99.90
54518;DHT22;40423;53.176;6.002;2023-05-10T02:00:12;12.50;99.90
54518;DHT22;40423;53.176;6.002;2023-05-10T02:02:45;12.50;99.90
54518;DHT22;40423;53.176;6.002;2023-05-10T02:05:13;12.50;99.90
54518;DHT22;40423;53.176;6.002;2023-05-10T02:07:41;12.50;99.90
54518;DHT22;40423;53.176;6.002;2023-05-10T02:10:08;12.50;99.90
54518;DHT22;40423;53.176;6.002;2023-05-10T02:12:36;12.50;99.90
54518;DHT22;40423;53.176;6.002;2023-05-10T02:15:05;12.50;99.90
54518;DHT22;40423;53.176;6.002;2023-05-10T02:17:33;12.50;99.90
54518;DHT22;40423;53.176;6.002;2023-05-10T02:20:01;12.50;99.90
54518;DHT22;40423;53.176;6.002;2023-05-10T02:22:28;12.50;99.90
54518;DHT22;40423;53.176;6.002;2023-05-10T02:24:58;12.60;99.90
54518;DHT22;40423;53.176;6.002;2023-05-10T02:27:27;12.50;99.90
54518;DHT22;40423;53.176;6.002;2023-05-10T02:29:53;12.60;99.90
54518;DHT22;40423;53.176;6.002;2023-05-10T02:32:21;12.60;99.90
54518;DHT22;40423;53.176;6.002;2023-05-10T02:34:49;12.60;99.90
54518;DHT22;40423;53.176;6.002;2023-05-10T02:37:19;12.60;99.90
54518;DHT22;40423;53.176;6.002;2023-05-10T02:39:54;12.60;99.90
54518;DHT22;40423;53.176;6.002;2023-05-10T02:42:27;12.70;99.90
54518;DHT22;40423;53.176;6.002;2023-05-10T02:45:01;12.70;99.90
54518;DHT22;40423;53.176;6.002;2023-05-10T02:47:28;12.60;99.90
54518;DHT22;40423;53.176;6.002;2023-05-10T02:49:55;12.70;99.90
54518;DHT22;40423;53.176;6.002;2023-05-10T02:52:28;12.60;99.90
54518;DHT22;40423;53.176;6.002;2023-05-10T02:54:55;12.60;99.90
54518;DHT22;40423;53.176;6.002;2023-05-10T02:57:27;12.60;99.90
54518;DHT22;40423;53.176;6.002;2023-05-10T02:59:57;12.60;99.90
54518;DHT22;40423;53.176;6.002;2023-05-10T03:02:23;12.60;99.90
54518;DHT22;40423;53.176;6.002;2023-05-10T03:04:49;12.60;99.90
54518;DHT22;40423;53.176;6.002;2023-05-10T03:07:15;12.50;99.90
54518;DHT22;40423;53.176;6.002;2023-05-10T03:09:42;12.50;99.90
54518;DHT22;40423;53.176;6.002;2023-05-10T03:12:27;12.50;99.90
54518;DHT22;40423;53.176;6.002;2023-05-10T03:15:53;12.60;99.90
54518;DHT22;40423;53.176;6.002;2023-05-10T03:18:56;12.60;99.90
54518;DHT22;40423;53.176;6.002;2023-05-10T03:21:02;12.50;99.90
54518;DHT22;40423;53.176;6.002;2023-05-10T03:23:35;12.50;99.90
54518;DHT22;40423;53.176;6.002;2023-05-10T03:26:02;12.40;99.90
54518;DHT22;40423;53.176;6.002;2023-05-10T03:28:30;12.50;99.90
54518;DHT22;40423;53.176;6.002;2023-05-10T03:30:57;12.50;99.90
54518;DHT22;40423;53.176;6.002;2023-05-10T03:33:24;12.50;99.90
54518;DHT22;40423;53.176;6.002;2023-05-10T03:35:50;12.50;99.90
54518;DHT22;40423;53.176;6.002;2023-05-10T03:38:15;12.40;99.90
54518;DHT22;40423;53.176;6.002;2023-05-10T03:40:41;12.40;99.90
54518;DHT22;40423;53.176;6.002;2023-05-10T03:43:07;12.50;99.90
54518;DHT22;40423;53.176;6.002;2023-05-10T03:45:33;12.50;99.90
54518;DHT22;40423;53.176;6.002;2023-05-10T03:47:59;12.50;99.90
54518;DHT22;40423;53.176;6.002;2023-05-10T03:50:24;12.40;99.90
54518;DHT22;40423;53.176;6.002;2023-05-10T03:52:50;12.40;99.90
54518;DHT22;40423;53.176;6.002;2023-05-10T03:55:16;12.40;99.90
54518;DHT22;40423;53.176;6.002;2023-05-10T03:57:42;12.40;99.90
54518;DHT22;40423;53.176;6.002;2023-05-10T04:00:08;12.30;99.90
54518;DHT22;40423;53.176;6.002;2023-05-10T04:02:35;12.30;99.90
54518;DHT22;40423;53.176;6.002;2023-05-10T04:05:01;12.30;99.90
54518;DHT22;40423;53.176;6.002;2023-05-10T04:07:27;12.30;99.90
54518;DHT22;40423;53.176;6.002;2023-05-10T04:09:52;12.30;99.90
54518;DHT22;40423;53.176;6.002;2023-05-10T04:12:18;12.30;99.90
54518;DHT22;40423;53.176;6.002;2023-05-10T04:14:44;12.30;99.90
54518;DHT22;40423;53.176;6.002;2023-05-10T04:17:09;12.30;99.90
54518;DHT22;40423;53.176;6.002;2023-05-10T04:19:35;12.30;99.90
54518;DHT22;40423;53.176;6.002;2023-05-10T04:22:02;12.30;99.90
54518;DHT22;40423;53.176;6.002;2023-05-10T04:24:28;12.30;99.90
54518;DHT22;40423;53.176;6.002;2023-05-10T04:26:54;12.20;99.90
54518;DHT22;40423;53.176;6.002;2023-05-10T04:29:20;12.20;99.90
54518;DHT22;40423;53.176;6.002;2023-05-10T04:31:46;12.20;99.90
54518;DHT22;40423;53.176;6.002;2023-05-10T04:34:12;12.20;99.90
54518;DHT22;40423;53.176;6.002;2023-05-10T04:36:38;12.20;99.90
54518;DHT22;40423;53.176;6.002;2023-05-10T04:39:06;12.20;99.90
54518;DHT22;40423;53.176;6.002;2023-05-10T04:41:32;12.20;99.90
54518;DHT22;40423;53.176;6.002;2023-05-10T04:43:58;12.20;99.90
54518;DHT22;40423;53.176;6.002;2023-05-10T04:46:24;12.20;99.90
54518;DHT22;40423;53.176;6.002;2023-05-10T04:48:49;12.20;99.90
54518;DHT22;40423;53.176;6.002;2023-05-10T04:51:15;12.20;99.90
54518;DHT22;40423;53.176;6.002;2023-05-10T04:53:41;12.20;99.90
54518;DHT22;40423;53.176;6.002;2023-05-10T04:56:07;12.20;99.90
54518;DHT22;40423;53.176;6.002;2023-05-10T04:58:32;12.20;99.90
54518;DHT22;40423;53.176;6.002;2023-05-10T05:01:05;12.20;99.90
54518;DHT22;40423;53.176;6.002;2023-05-10T05:03:32;12.20;99.90
54518;DHT22;40423;53.176;6.002;2023-05-10T05:05:58;12.20;99.90
54518;DHT22;40423;53.176;6.002;2023-05-10T05:08:23;12.20;99.90
54518;DHT22;40423;53.176;6.002;2023-05-10T05:10:52;12.20;99.90
54518;DHT22;40423;53.176;6.002;2023-05-10T05:13:18;12.20;99.90
54518;DHT22;40423;53.176;6.002;2023-05-10T05:15:44;12.20;99.90
54518;DHT22;40423;53.176;6.002;2023-05-10T05:18:10;12.20;99.90
54518;DHT22;40423;53.176;6.002;2023-05-10T05:20:35;12.20;99.90
54518;DHT22;40423;53.176;6.002;2023-05-10T05:23:01;12.20;99.90
54518;DHT22;40423;53.176;6.002;2023-05-10T05:25:27;12.20;99.90
54518;DHT22;40423;53.176;6.002;2023-05-10T05:27:53;12.20;99.90
54518;DHT22;40423;53.176;6.002;2023-05-10T05:30:21;12.20;99.90
54518;DHT22;40423;53.176;6.002;2023-05-10T05:32:56;12.20;99.90
54518;DHT22;40423;53.176;6.002;2023-05-10T05:35:22;12.10;99.90
54518;DHT22;40423;53.176;6.002;2023-05-10T05:37:57;12.10;99.90
54518;DHT22;40423;53.176;6.002;2023-05-10T05:40:25;12.10;99.90
54518;DHT22;40423;53.176;6.002;2023-05-10T05:42:57;12.20;99.90
54518;DHT22;40423;53.176;6.002;2023-05-10T05:45:32;12.10;99.90
54518;DHT22;40423;53.176;6.002;2023-05-10T05:47:57;12.20;99.90
54518;DHT22;40423;53.176;6.002;2023-05-10T05:50:23;12.20;99.90
54518;DHT22;40423;53.176;6.002;2023-05-10T05:52:52;12.20;99.90
54518;DHT22;40423;53.176;6.002;2023-05-10T05:55:17;12.20;99.90
54518;DHT22;40423;53.176;6.002;2023-05-10T05:57:43;12.20;99.90
54518;DHT22;40423;53.176;6.002;2023-05-10T06:00:09;12.20;99.90
54518;DHT22;40423;53.176;6.002;2023-05-10T06:02:35;12.20;99.90
54518;DHT22;40423;53.176;6.002;2023-05-10T06:05:02;12.20;99.90
54518;DHT22;40423;53.176;6.002;2023-05-10T06:07:28;12.20;99.90
54518;DHT22;40423;53.176;6.002;2023-05-10T06:09:53;12.20;99.90
54518;DHT22;40423;53.176;6.002;2023-05-10T06:12:19;12.30;99.90
54518;DHT22;40423;53.176;6.002;2023-05-10T06:14:45;12.20;99.90
54518;DHT22;40423;53.176;6.002;2023-05-10T06:17:11;12.20;99.90
54518;DHT22;40423;53.176;6.002;2023-05-10T06:19:37;12.20;99.90
54518;DHT22;40423;53.176;6.002;2023-05-10T06:22:02;12.20;99.90
54518;DHT22;40423;53.176;6.002;2023-05-10T06:24:28;12.20;99.90
54518;DHT22;40423;53.176;6.002;2023-05-10T06:26:54;12.30;99.90
54518;DHT22;40423;53.176;6.002;2023-05-10T06:29:20;12.30;99.90
54518;DHT22;40423;53.176;6.002;2023-05-10T06:31:45;12.30;99.90
54518;DHT22;40423;53.176;6.002;2023-05-10T06:34:11;12.30;99.90
54518;DHT22;40423;53.176;6.002;2023-05-10T06:36:46;12.40;99.90
54518;DHT22;40423;53.176;6.002;2023-05-10T06:39:12;12.40;99.90
54518;DHT22;40423;53.176;6.002;2023-05-10T06:41:38;12.40;99.90
54518;DHT22;40423;53.176;6.002;2023-05-10T06:44:04;12.40;99.90
54518;DHT22;40423;53.176;6.002;2023-05-10T06:46:30;12.50;99.90
54518;DHT22;40423;53.176;6.002;2023-05-10T06:48:56;12.50;99.90
54518;DHT22;40423;53.176;6.002;2023-05-10T06:51:25;12.40;99.90
54518;DHT22;40423;53.176;6.002;2023-05-10T06:53:51;12.50;99.90
54518;DHT22;40423;53.176;6.002;2023-05-10T06:56:17;12.50;99.90
54518;DHT22;40423;53.176;6.002;2023-05-10T06:58:50;12.50;99.90
54518;DHT22;40423;53.176;6.002;2023-05-10T07:01:15;12.50;99.90
54518;DHT22;40423;53.176;6.002;2023-05-10T07:03:41;12.50;99.90
54518;DHT22;40423;53.176;6.002;2023-05-10T07:06:07;12.50;99.90
54518;DHT22;40423;53.176;6.002;2023-05-10T07:08:36;12.50;99.90
54518;DHT22;40423;53.176;6.002;2023-05-10T07:11:05;12.60;99.90
54518;DHT22;40423;53.176;6.002;2023-05-10T07:13:37;12.60;99.90
54518;DHT22;40423;53.176;6.002;2023-05-10T07:16:04;12.60;99.90
54518;DHT22;40423;53.176;6.002;2023-05-10T07:18:31;12.60;99.90
54518;DHT22;40423;53.176;6.002;2023-05-10T07:20:57;12.60;99.90
54518;DHT22;40423;53.176;6.002;2023-05-10T07:23:23;12.60;99.90
54518;DHT22;40423;53.176;6.002;2023-05-10T07:25:49;12.60;99.90
54518;DHT22;40423;53.176;6.002;2023-05-10T07:28:16;12.60;99.90
54518;DHT22;40423;53.176;6.002;2023-05-10T07:30:43;12.60;99.90
54518;DHT22;40423;53.176;6.002;2023-05-10T07:33:10;12.70;99.90
54518;DHT22;40423;53.176;6.002;2023-05-10T07:35:36;12.70;99.90
54518;DHT22;40423;53.176;6.002;2023-05-10T07:38:02;12.70;99.90
54518;DHT22;40423;53.176;6.002;2023-05-10T07:40:28;12.70;99.90
54518;DHT22;40423;53.176;6.002;2023-05-10T07:42:54;12.80;99.90
54518;DHT22;40423;53.176;6.002;2023-05-10T07:45:20;12.80;99.90
54518;DHT22;40423;53.176;6.002;2023-05-10T07:47:46;12.80;99.90
54518;DHT22;40423;53.176;6.002;2023-05-10T07:50:12;12.70;99.90
54518;DHT22;40423;53.176;6.002;2023-05-10T07:52:38;12.80;99.90
54518;DHT22;40423;53.176;6.002;2023-05-10T07:55:05;12.80;99.90
54518;DHT22;40423;53.176;6.002;2023-05-10T07:57:35;12.80;99.90
54518;DHT22;40423;53.176;6.002;2023-05-10T08:00:02;12.80;99.90
54518;DHT22;40423;53.176;6.002;2023-05-10T08:02:28;12.90;99.90
54518;DHT22;40423;53.176;6.002;2023-05-10T08:04:53;12.80;99.90
54518;DHT22;40423;53.176;6.002;2023-05-10T08:07:19;12.90;99.90
54518;DHT22;40423;53.176;6.002;2023-05-10T08:09:45;12.90;99.90
54518;DHT22;40423;53.176;6.002;2023-05-10T08:12:11;12.90;99.90
54518;DHT22;40423;53.176;6.002;2023-05-10T08:14:37;13.00;99.90
54518;DHT22;40423;53.176;6.002;2023-05-10T08:17:03;13.00;99.90
54518;DHT22;40423;53.176;6.002;2023-05-10T08:19:29;13.10;99.90
54518;DHT22;40423;53.176;6.002;2023-05-10T08:21:54;13.10;99.90
54518;DHT22;40423;53.176;6.002;2023-05-10T08:24:23;13.10;99.90
54518;DHT22;40423;53.176;6.002;2023-05-10T08:26:51;13.00;99.90
54518;DHT22;40423;53.176;6.002;2023-05-10T08:29:17;13.00;99.90
54518;DHT22;40423;53.176;6.002;2023-05-10T08:31:43;13.10;99.90
54518;DHT22;40423;53.176;6.002;2023-05-10T08:34:09;13.10;99.90
54518;DHT22;40423;53.176;6.002;2023-05-10T08:36:35;13.20;99.90
54518;DHT22;40423;53.176;6.002;2023-05-10T08:39:01;13.20;99.90
54518;DHT22;40423;53.176;6.002;2023-05-10T08:41:27;13.20;99.90
54518;DHT22;40423;53.176;6.002;2023-05-10T08:43:57;13.20;99.90
54518;DHT22;40423;53.176;6.002;2023-05-10T08:46:23;13.20;99.90
54518;DHT22;40423;53.176;6.002;2023-05-10T08:48:50;13.20;99.90
54518;DHT22;40423;53.176;6.002;2023-05-10T08:51:19;13.30;99.90
54518;DHT22;40423;53.176;6.002;2023-05-10T08:53:46;13.40;99.90
54518;DHT22;40423;53.176;6.002;2023-05-10T08:56:13;13.50;99.90
54518;DHT22;40423;53.176;6.002;2023-05-10T08:58:38;13.60;99.90
54518;DHT22;40423;53.176;6.002;2023-05-10T09:01:07;13.60;99.90
54518;DHT22;40423;53.176;6.002;2023-05-10T09:03:34;13.60;99.90
54518;DHT22;40423;53.176;6.002;2023-05-10T09:06:00;13.70;99.90
54518;DHT22;40423;53.176;6.002;2023-05-10T09:08:26;13.60;99.90
54518;DHT22;40423;53.176;6.002;2023-05-10T09:10:54;13.70;99.90
54518;DHT22;40423;53.176;6.002;2023-05-10T09:13:21;13.80;99.90
54518;DHT22;40423;53.176;6.002;2023-05-10T09:15:48;13.80;99.90
54518;DHT22;40423;53.176;6.002;2023-05-10T09:18:14;13.80;99.90
54518;DHT22;40423;53.176;6.002;2023-05-10T09:20:40;13.70;99.90
54518;DHT22;40423;53.176;6.002;2023-05-10T09:23:06;13.80;99.90
54518;DHT22;40423;53.176;6.002;2023-05-10T09:25:32;13.90;99.90
54518;DHT22;40423;53.176;6.002;2023-05-10T09:28:07;13.90;99.90
54518;DHT22;40423;53.176;6.002;2023-05-10T09:30:34;14.00;99.90
54518;DHT22;40423;53.176;6.002;2023-05-10T09:33:00;14.00;99.90
54518;DHT22;40423;53.176;6.002;2023-05-10T09:35:28;14.10;99.90
54518;DHT22;40423;53.176;6.002;2023-05-10T09:38:00;14.00;99.90
54518;DHT22;40423;53.176;6.002;2023-05-10T09:40:28;13.90;99.90
54518;DHT22;40423;53.176;6.002;2023-05-10T09:43:07;13.90;99.90
54518;DHT22;40423;53.176;6.002;2023-05-10T09:45:34;13.80;99.90
54518;DHT22;40423;53.176;6.002;2023-05-10T09:48:04;13.90;99.90
54518;DHT22;40423;53.176;6.002;2023-05-10T09:50:30;13.90;99.90
54518;DHT22;40423;53.176;6.002;2023-05-10T09:53:01;14.00;99.90
54518;DHT22;40423;53.176;6.002;2023-05-10T09:58:03;13.90;99.90
54518;DHT22;40423;53.176;6.002;2023-05-10T10:00:44;13.90;99.90
54518;DHT22;40423;53.176;6.002;2023-05-10T10:03:18;13.80;99.90
54518;DHT22;40423;53.176;6.002;2023-05-10T10:05:45;13.80;99.90
54518;DHT22;40423;53.176;6.002;2023-05-10T10:08:12;13.90;99.90
54518;DHT22;40423;53.176;6.002;2023-05-10T10:10:39;13.90;99.90
54518;DHT22;40423;53.176;6.002;2023-05-10T10:13:06;14.00;99.90
54518;DHT22;40423;53.176;6.002;2023-05-10T10:15:33;13.90;99.90
54518;DHT22;40423;53.176;6.002;2023-05-10T10:17:59;13.90;99.90
54518;DHT22;40423;53.176;6.002;2023-05-10T10:20:26;14.00;99.90
54518;DHT22;40423;53.176;6.002;2023-05-10T10:22:51;14.00;99.90
54518;DHT22;40423;53.176;6.002;2023-05-10T10:25:19;14.00;99.90
54518;DHT22;40423;53.176;6.002;2023-05-10T10:27:59;14.10;99.90
54518;DHT22;40423;53.176;6.002;2023-05-10T10:30:47;14.20;99.90
54518;DHT22;40423;53.176;6.002;2023-05-10T10:33:40;14.40;99.90
54518;DHT22;40423;53.176;6.002;2023-05-10T10:36:09;14.40;99.90
54518;DHT22;40423;53.176;6.002;2023-05-10T10:41:33;14.60;99.90
54518;DHT22;40423;53.176;6.002;2023-05-10T10:47:06;14.60;99.90
54518;DHT22;40423;53.176;6.002;2023-05-10T10:49:42;14.60;99.90
54518;DHT22;40423;53.176;6.002;2023-05-10T10:52:25;14.60;99.90
54518;DHT22;40423;53.176;6.002;2023-05-10T10:54:59;14.70;99.90
54518;DHT22;40423;53.176;6.002;2023-05-10T10:57:26;14.70;99.90
54518;DHT22;40423;53.176;6.002;2023-05-10T11:00:17;14.70;99.90
54518;DHT22;40423;53.176;6.002;2023-05-10T11:02:43;14.70;99.90
54518;DHT22;40423;53.176;6.002;2023-05-10T11:07:59;15.00;99.90
54518;DHT22;40423;53.176;6.002;2023-05-10T11:10:26;15.00;99.90
54518;DHT22;40423;53.176;6.002;2023-05-10T11:13:06;14.90;99.90
54518;DHT22;40423;53.176;6.002;2023-05-10T11:15:33;15.00;99.90
54518;DHT22;40423;53.176;6.002;2023-05-10T11:18:16;15.00;99.90
54518;DHT22;40423;53.176;6.002;2023-05-10T11:20:42;14.90;99.90
54518;DHT22;40423;53.176;6.002;2023-05-10T11:23:12;15.10;99.90
54518;DHT22;40423;53.176;6.002;2023-05-10T11:25:45;15.10;99.90
54518;DHT22;40423;53.176;6.002;2023-05-10T11:28:11;15.00;99.90
54518;DHT22;40423;53.176;6.002;2023-05-10T11:30:42;15.00;99.90
54518;DHT22;40423;53.176;6.002;2023-05-10T11:33:09;15.00;99.90
54518;DHT22;40423;53.176;6.002;2023-05-10T11:35:39;14.90;99.90
54518;DHT22;40423;53.176;6.002;2023-05-10T11:38:09;14.80;99.90
54518;DHT22;40423;53.176;6.002;2023-05-10T11:40:36;14.90;99.90
54518;DHT22;40423;53.176;6.002;2023-05-10T11:43:02;14.70;99.90
54518;DHT22;40423;53.176;6.002;2023-05-10T11:45:31;14.70;99.90
54518;DHT22;40423;53.176;6.002;2023-05-10T11:47:57;14.70;99.90
54518;DHT22;40423;53.176;6.002;2023-05-10T11:50:23;14.70;99.90
54518;DHT22;40423;53.176;6.002;2023-05-10T11:52:56;14.80;99.90
54518;DHT22;40423;53.176;6.002;2023-05-10T11:55:22;14.80;99.90
54518;DHT22;40423;53.176;6.002;2023-05-10T11:57:54;14.80;99.90
54518;DHT22;40423;53.176;6.002;2023-05-10T12:00:20;14.90;99.90
54518;DHT22;40423;53.176;6.002;2023-05-10T12:02:47;14.90;99.90
54518;DHT22;40423;53.176;6.002;2023-05-10T12:05:13;14.90;99.90
54518;DHT22;40423;53.176;6.002;2023-05-10T12:07:39;14.90;99.90
54518;DHT22;40423;53.176;6.002;2023-05-10T12:10:14;14.80;99.90
54518;DHT22;40423;53.176;6.002;2023-05-10T12:12:46;14.80;99.90
54518;DHT22;40423;53.176;6.002;2023-05-10T12:15:20;14.80;99.90
54518;DHT22;40423;53.176;6.002;2023-05-10T12:17:47;14.70;99.90
54518;DHT22;40423;53.176;6.002;2023-05-10T12:20:23;14.90;99.90
54518;DHT22;40423;53.176;6.002;2023-05-10T12:22:51;15.00;99.90
54518;DHT22;40423;53.176;6.002;2023-05-10T12:25:18;15.00;99.90
54518;DHT22;40423;53.176;6.002;2023-05-10T12:27:54;15.10;99.90
54518;DHT22;40423;53.176;6.002;2023-05-10T12:30:24;15.20;99.90
54518;DHT22;40423;53.176;6.002;2023-05-10T12:32:51;15.30;99.90
54518;DHT22;40423;53.176;6.002;2023-05-10T12:35:17;15.40;99.90
54518;DHT22;40423;53.176;6.002;2023-05-10T12:37:47;15.40;99.90
54518;DHT22;40423;53.176;6.002;2023-05-10T12:40:13;15.60;99.90
54518;DHT22;40423;53.176;6.002;2023-05-10T12:42:39;15.70;99.90
54518;DHT22;40423;53.176;6.002;2023-05-10T12:45:06;15.60;99.90
54518;DHT22;40423;53.176;6.002;2023-05-10T12:47:32;15.80;99.90
54518;DHT22;40423;53.176;6.002;2023-05-10T12:49:59;15.90;99.90
54518;DHT22;40423;53.176;6.002;2023-05-10T12:52:25;16.00;99.90
54518;DHT22;40423;53.176;6.002;2023-05-10T12:54:52;16.10;99.90
54518;DHT22;40423;53.176;6.002;2023-05-10T12:57:19;16.20;99.90
54518;DHT22;40423;53.176;6.002;2023-05-10T12:59:45;16.20;99.90
54518;DHT22;40423;53.176;6.002;2023-05-10T13:02:11;16.20;99.90
54518;DHT22;40423;53.176;6.002;2023-05-10T13:04:36;16.10;99.90
54518;DHT22;40423;53.176;6.002;2023-05-10T13:07:06;16.20;99.90
54518;DHT22;40423;53.176;6.002;2023-05-10T13:09:32;16.20;99.90
54518;DHT22;40423;53.176;6.002;2023-05-10T13:11:57;16.10;99.90
54518;DHT22;40423;53.176;6.002;2023-05-10T13:14:24;15.90;99.90
54518;DHT22;40423;53.176;6.002;2023-05-10T13:16:50;15.80;99.90
54518;DHT22;40423;53.176;6.002;2023-05-10T13:19:16;15.80;99.90
54518;DHT22;40423;53.176;6.002;2023-05-10T13:21:43;15.80;99.90
54518;DHT22;40423;53.176;6.002;2023-05-10T13:24:12;15.80;99.90
54518;DHT22;40423;53.176;6.002;2023-05-10T13:26:41;15.90;99.90
54518;DHT22;40423;53.176;6.002;2023-05-10T13:29:07;15.90;99.90
54518;DHT22;40423;53.176;6.002;2023-05-10T13:31:33;16.00;99.90
54518;DHT22;40423;53.176;6.002;2023-05-10T13:33:59;16.00;99.90
54518;DHT22;40423;53.176;6.002;2023-05-10T13:36:24;16.00;99.90
54518;DHT22;40423;53.176;6.002;2023-05-10T13:38:50;16.00;99.90
54518;DHT22;40423;53.176;6.002;2023-05-10T13:41:16;16.00;99.90
54518;DHT22;40423;53.176;6.002;2023-05-10T13:43:42;16.00;99.90
54518;DHT22;40423;53.176;6.002;2023-05-10T13:46:07;15.90;99.90
54518;DHT22;40423;53.176;6.002;2023-05-10T13:48:33;16.00;99.90
54518;DHT22;40423;53.176;6.002;2023-05-10T13:50:59;16.00;99.90
54518;DHT22;40423;53.176;6.002;2023-05-10T13:53:24;16.10;99.90
54518;DHT22;40423;53.176;6.002;2023-05-10T13:55:50;16.20;99.90
54518;DHT22;40423;53.176;6.002;2023-05-10T13:58:16;16.30;99.90
54518;DHT22;40423;53.176;6.002;2023-05-10T14:00:42;16.20;99.90
54518;DHT22;40423;53.176;6.002;2023-05-10T14:03:08;16.10;99.90
54518;DHT22;40423;53.176;6.002;2023-05-10T14:05:36;16.10;99.90
54518;DHT22;40423;53.176;6.002;2023-05-10T14:08:02;15.90;99.90
54518;DHT22;40423;53.176;6.002;2023-05-10T14:10:28;15.80;99.90
54518;DHT22;40423;53.176;6.002;2023-05-10T14:12:53;15.70;99.90
54518;DHT22;40423;53.176;6.002;2023-05-10T14:15:19;15.70;99.90
54518;DHT22;40423;53.176;6.002;2023-05-10T14:17:45;15.60;99.90
54518;DHT22;40423;53.176;6.002;2023-05-10T14:20:11;15.60;99.90
54518;DHT22;40423;53.176;6.002;2023-05-10T14:22:37;15.70;99.90
54518;DHT22;40423;53.176;6.002;2023-05-10T14:25:02;15.70;99.90
54518;DHT22;40423;53.176;6.002;2023-05-10T14:27:29;15.70;99.90
54518;DHT22;40423;53.176;6.002;2023-05-10T14:29:55;15.60;99.90
54518;DHT22;40423;53.176;6.002;2023-05-10T14:32:21;15.60;99.90
54518;DHT22;40423;53.176;6.002;2023-05-10T14:34:47;15.70;99.90
54518;DHT22;40423;53.176;6.002;2023-05-10T14:37:13;15.70;99.90
54518;DHT22;40423;53.176;6.002;2023-05-10T14:39:40;15.70;99.90
54518;DHT22;40423;53.176;6.002;2023-05-10T14:42:08;15.70;99.90
54518;DHT22;40423;53.176;6.002;2023-05-10T14:44:34;15.60;99.90
54518;DHT22;40423;53.176;6.002;2023-05-10T14:46:59;15.50;99.90
54518;DHT22;40423;53.176;6.002;2023-05-10T14:49:25;15.50;99.90
54518;DHT22;40423;53.176;6.002;2023-05-10T14:51:51;15.40;99.90
54518;DHT22;40423;53.176;6.002;2023-05-10T14:54:17;15.40;99.90
54518;DHT22;40423;53.176;6.002;2023-05-10T14:56:43;15.40;99.90
54518;DHT22;40423;53.176;6.002;2023-05-10T14:59:09;15.30;99.90
54518;DHT22;40423;53.176;6.002;2023-05-10T15:01:34;15.40;99.90
54518;DHT22;40423;53.176;6.002;2023-05-10T15:04:03;15.50;99.90
54518;DHT22;40423;53.176;6.002;2023-05-10T15:06:34;15.50;99.90
54518;DHT22;40423;53.176;6.002;2023-05-10T15:09:03;15.60;99.90
54518;DHT22;40423;53.176;6.002;2023-05-10T15:11:29;15.60;99.90
54518;DHT22;40423;53.176;6.002;2023-05-10T15:13:55;15.60;99.90
54518;DHT22;40423;53.176;6.002;2023-05-10T15:16:21;15.70;99.90
54518;DHT22;40423;53.176;6.002;2023-05-10T15:18:46;15.70;99.90
54518;DHT22;40423;53.176;6.002;2023-05-10T15:21:12;15.70;99.90
54518;DHT22;40423;53.176;6.002;2023-05-10T15:23:41;15.60;99.90
54518;DHT22;40423;53.176;6.002;2023-05-10T15:26:06;15.60;99.90
54518;DHT22;40423;53.176;6.002;2023-05-10T15:28:33;15.50;99.90
54518;DHT22;40423;53.176;6.002;2023-05-10T15:30:59;15.50;99.90
54518;DHT22;40423;53.176;6.002;2023-05-10T15:33:25;15.60;99.90
54518;DHT22;40423;53.176;6.002;2023-05-10T15:35:53;15.60;99.90
54518;DHT22;40423;53.176;6.002;2023-05-10T15:38:19;15.60;99.90
54518;DHT22;40423;53.176;6.002;2023-05-10T15:40:45;15.60;99.90
54518;DHT22;40423;53.176;6.002;2023-05-10T15:43:11;15.50;99.90
54518;DHT22;40423;53.176;6.002;2023-05-10T15:45:36;15.50;99.90
54518;DHT22;40423;53.176;6.002;2023-05-10T15:48:02;15.50;99.90
54518;DHT22;40423;53.176;6.002;2023-05-10T15:50:28;15.50;99.90
54518;DHT22;40423;53.176;6.002;2023-05-10T15:52:53;15.50;99.90